地図

経路データ

SID SEASON NUMBER BASIN SUBBASIN NAME ISO_TIME NATURE LAT LON WMO_WIND WMO_PRES WMO_AGENCY TRACK_TYPE DIST2LAND LANDFALL IFLAG USA_AGENCY USA_ATCF_ID USA_LAT USA_LON USA_RECORD USA_STATUS USA_WIND USA_PRES USA_SSHS USA_R34_NE USA_R34_SE USA_R34_SW USA_R34_NW USA_R50_NE USA_R50_SE USA_R50_SW USA_R50_NW USA_R64_NE USA_R64_SE USA_R64_SW USA_R64_NW USA_POCI USA_ROCI USA_RMW USA_EYE TOKYO_LAT TOKYO_LON TOKYO_GRADE TOKYO_WIND TOKYO_PRES TOKYO_R50_DIR TOKYO_R50_LONG TOKYO_R50_SHORT TOKYO_R30_DIR TOKYO_R30_LONG TOKYO_R30_SHORT TOKYO_LAND CMA_LAT CMA_LON CMA_CAT CMA_WIND CMA_PRES HKO_LAT HKO_LON HKO_CAT HKO_WIND HKO_PRES NEWDELHI_LAT NEWDELHI_LON NEWDELHI_GRADE NEWDELHI_WIND NEWDELHI_PRES NEWDELHI_CI NEWDELHI_DP NEWDELHI_POCI REUNION_LAT REUNION_LON REUNION_TYPE REUNION_WIND REUNION_PRES REUNION_TNUM REUNION_CI REUNION_RMW REUNION_R34_NE REUNION_R34_SE REUNION_R34_SW REUNION_R34_NW REUNION_R50_NE REUNION_R50_SE REUNION_R50_SW REUNION_R50_NW REUNION_R64_NE REUNION_R64_SE REUNION_R64_SW REUNION_R64_NW BOM_LAT BOM_LON BOM_TYPE BOM_WIND BOM_PRES BOM_TNUM BOM_CI BOM_RMW BOM_R34_NE BOM_R34_SE BOM_R34_SW BOM_R34_NW BOM_R50_NE BOM_R50_SE BOM_R50_SW BOM_R50_NW BOM_R64_NE BOM_R64_SE BOM_R64_SW BOM_R64_NW BOM_ROCI BOM_POCI BOM_EYE BOM_POS_METHOD BOM_PRES_METHOD NADI_LAT NADI_LON NADI_CAT NADI_WIND NADI_PRES WELLINGTON_LAT WELLINGTON_LON WELLINGTON_WIND WELLINGTON_PRES DS824_LAT DS824_LON DS824_STAGE DS824_WIND DS824_PRES TD9636_LAT TD9636_LON TD9636_STAGE TD9636_WIND TD9636_PRES TD9635_LAT TD9635_LON TD9635_WIND TD9635_PRES TD9635_ROCI NEUMANN_LAT NEUMANN_LON NEUMANN_CLASS NEUMANN_WIND NEUMANN_PRES MLC_LAT MLC_LON MLC_CLASS MLC_WIND MLC_PRES USA_GUST BOM_GUST BOM_GUST_PER REUNION_GUST REUNION_GUST_PER USA_SEAHGT USA_SEARAD_NE USA_SEARAD_SE USA_SEARAD_SW USA_SEARAD_NW STORM_SPEED STORM_DIR
1943100N06143 1943 26 WP MM NOT_NAMED 1943-04-09 12:00:00 NR 6.00000 143.400 main 974 973 __________O___ -1 6.00000 143.400 2 18 267
1943100N06143 1943 26 WP MM NOT_NAMED 1943-04-09 15:00:00 NR 5.95297 142.512 main 970 925 __________P___ -1 5.95297 142.512 2 17 267
1943100N06143 1943 26 WP MM NOT_NAMED 1943-04-09 18:00:00 NR 5.90407 141.660 main 925 892 __________P___ -1 5.90407 141.660 2 16 266
1943100N06143 1943 26 WP MM NOT_NAMED 1943-04-09 21:00:00 NR 5.85309 140.877 main 892 858 __________P___ -1 5.85309 140.877 2 15 266
1943100N06143 1943 26 WP MM NOT_NAMED 1943-04-10 00:00:00 NR 5.80000 140.200 main 858 834 __________O___ -1 5.80000 140.200 2 12 265
1943100N06143 1943 26 WP MM NOT_NAMED 1943-04-10 03:00:00 NR 5.74693 139.651 main 834 815 __________P___ -1 5.74693 139.651 2 10 264
1943100N06143 1943 26 WP MM NOT_NAMED 1943-04-10 06:00:00 NR 5.70434 139.208 main 815 801 __________P___ -1 5.70434 139.208 2 8 266
1943100N06143 1943 26 WP MM NOT_NAMED 1943-04-10 09:00:00 NR 5.68461 138.835 main 796 783 __________P___ -1 5.68461 138.835 2 7 270
1943100N06143 1943 26 WP MM NOT_NAMED 1943-04-10 12:00:00 NR 5.70000 138.500 main 783 771 __________O___ -1 5.70000 138.500 2 7 272
1943100N06143 1943 26 WP MM NOT_NAMED 1943-04-10 15:00:00 NR 5.70287 138.174 main 771 761 __________P___ -1 5.70287 138.174 2 6 275
1943100N06143 1943 26 WP MM NOT_NAMED 1943-04-10 18:00:00 NR 5.74964 137.872 main 761 761 __________P___ -1 5.74964 137.872 2 6 285
1943100N06143 1943 26 WP MM NOT_NAMED 1943-04-10 21:00:00 NR 5.87160 137.558 main 772 766 __________P___ -1 5.87160 137.558 2 8 298
1943100N06143 1943 26 WP MM NOT_NAMED 1943-04-11 00:00:00 NR 6.10000 137.200 main 782 782 __________O___ -1 6.10000 137.200 2 10 306
1943100N06143 1943 26 WP MM NOT_NAMED 1943-04-11 03:00:00 NR 6.46334 136.734 main 816 816 __________P___ -1 6.46334 136.734 2 13 311
1943100N06143 1943 26 WP MM NOT_NAMED 1943-04-11 06:00:00 NR 6.93035 136.223 main 854 854 __________P___ -1 6.93035 136.223 2 14 314
1943100N06143 1943 26 WP MM NOT_NAMED 1943-04-11 09:00:00 NR 7.45713 135.700 main 918 918 __________P___ -1 7.45713 135.700 2 15 317
1943100N06143 1943 26 WP MM NOT_NAMED 1943-04-11 12:00:00 NR 8.00000 135.200 main 947 907 __________O___ -1 8.00000 135.200 2 14 320
1943100N06143 1943 26 WP MM NOT_NAMED 1943-04-11 15:00:00 NR 8.53713 134.775 main 907 871 __________P___ -1 8.53713 134.775 2 14 323
1943100N06143 1943 26 WP MM NOT_NAMED 1943-04-11 18:00:00 NR 9.07450 134.378 main 872 838 __________P___ -1 9.07450 134.378 2 13 323
1943100N06143 1943 26 WP MM NOT_NAMED 1943-04-11 21:00:00 NR 9.57465 133.991 main 841 811 __________P___ -1 9.57465 133.991 2 12 320
1943100N06143 1943 26 WP MM NOT_NAMED 1943-04-12 00:00:00 NR 10.0000 133.600 main 811 775 __________O___ -1 10.0000 133.600 2 11 313
1943100N06143 1943 26 WP MM NOT_NAMED 1943-04-12 03:00:00 NR 10.2997 133.198 main 775 738 __________P___ -1 10.2997 133.198 2 10 303
1943100N06143 1943 26 WP MM NOT_NAMED 1943-04-12 06:00:00 NR 10.5245 132.787 main 738 700 __________P___ -1 10.5245 132.787 2 9 297
1943100N06143 1943 26 WP MM NOT_NAMED 1943-04-12 09:00:00 NR 10.7121 132.357 main 700 652 __________P___ -1 10.7121 132.357 2 10 293
1943100N06143 1943 26 WP MM NOT_NAMED 1943-04-12 12:00:00 NR 10.9000 131.900 main 652 608 __________O___ -1 10.9000 131.900 2 11 295
1943100N06143 1943 26 WP MM NOT_NAMED 1943-04-12 15:00:00 NR 11.1634 131.372 main 611 558 __________P___ -1 11.1634 131.372 2 12 297
1943100N06143 1943 26 WP MM NOT_NAMED 1943-04-12 18:00:00 NR 11.4305 130.821 main 547 497 __________P___ -1 11.4305 130.821 2 12 296
1943100N06143 1943 26 WP MM NOT_NAMED 1943-04-12 21:00:00 NR 11.6822 130.284 main 497 447 __________P___ -1 11.6822 130.284 2 11 295
1943100N06143 1943 26 WP MM NOT_NAMED 1943-04-13 00:00:00 NR 11.9000 129.800 main 447 408 __________O___ -1 11.9000 129.800 2 9 293
1943100N06143 1943 26 WP MM NOT_NAMED 1943-04-13 03:00:00 NR 12.0442 129.409 main 408 380 __________P___ -1 12.0442 129.409 2 8 290
1943100N06143 1943 26 WP MM NOT_NAMED 1943-04-13 06:00:00 NR 12.1569 129.074 main 383 353 __________P___ -1 12.1569 129.074 2 7 290
1943100N06143 1943 26 WP MM NOT_NAMED 1943-04-13 09:00:00 NR 12.2662 128.778 main 357 326 __________P___ -1 12.2662 128.778 2 6 293
1943100N06143 1943 26 WP MM NOT_NAMED 1943-04-13 12:00:00 NR 12.4000 128.500 main 326 296 __________O___ -1 12.4000 128.500 2 7 300
1943100N06143 1943 26 WP MM NOT_NAMED 1943-04-13 15:00:00 NR 12.5962 128.186 main 296 269 __________P___ -1 12.5962 128.186 2 7 305
1943100N06143 1943 26 WP MM NOT_NAMED 1943-04-13 18:00:00 NR 12.8200 127.890 main 269 244 __________P___ -1 12.8200 127.890 2 7 310
1943100N06143 1943 26 WP MM NOT_NAMED 1943-04-13 21:00:00 NR 13.0588 127.624 main 249 234 __________P___ -1 13.0588 127.624 2 7 315
1943100N06143 1943 26 WP MM NOT_NAMED 1943-04-14 00:00:00 NR 13.3000 127.400 main 240 237 __________O___ -1 13.3000 127.400 2 6 322
1943100N06143 1943 26 WP MM NOT_NAMED 1943-04-14 03:00:00 NR 13.5370 127.244 main 234 234 __________P___ -1 13.5370 127.244 2 5 331
1943100N06143 1943 26 WP MM NOT_NAMED 1943-04-14 06:00:00 NR 13.7722 127.127 main 249 249 __________P___ -1 13.7722 127.127 2 5 335
1943100N06143 1943 26 WP MM NOT_NAMED 1943-04-14 09:00:00 NR 13.9964 127.022 main 256 256 __________P___ -1 13.9964 127.022 2 5 333
1943100N06143 1943 26 WP MM NOT_NAMED 1943-04-14 12:00:00 NR 14.2000 126.900 main 264 254 __________O___ -1 14.2000 126.900 2 5 324
1943100N06143 1943 26 WP MM NOT_NAMED 1943-04-14 15:00:00 NR 14.3765 126.740 main 254 246 __________P___ -1 14.3765 126.740 2 5 314
1943100N06143 1943 26 WP MM NOT_NAMED 1943-04-14 18:00:00 NR 14.5303 126.545 main 236 223 __________P___ -1 14.5303 126.545 2 5 306
1943100N06143 1943 26 WP MM NOT_NAMED 1943-04-14 21:00:00 NR 14.6690 126.328 main 223 209 __________P___ -1 14.6690 126.328 2 5 302
1943100N06143 1943 26 WP MM NOT_NAMED 1943-04-15 00:00:00 NR 14.8000 126.100 main 209 __________O___ -1 14.8000 126.100 2 5 301

デジタル台風データ・検索

IBTrACS Databaseについて

本データベースは、米国NOAAが公開する1842年以降の世界の熱帯低気圧のベストトラックデータアーカイブInternational Best Track Archive for Climate Stewardship (IBTrACS)を、ウェブで閲覧しやすい形式に変換したものです。

最終更新日:2021-10-19